sensor_id;sensor_type;location;lat;lon;timestamp;temperature;humidity
16172;DHT22;8192;53.596;10.166;2023-05-07T05:58:22;20.90;32.60
16172;DHT22;8192;53.596;10.166;2023-05-07T06:00:49;20.90;32.80
16172;DHT22;8192;53.596;10.166;2023-05-07T06:03:17;20.90;32.80
16172;DHT22;8192;53.596;10.166;2023-05-07T06:05:44;20.80;32.90
16172;DHT22;8192;53.596;10.166;2023-05-07T06:08:10;20.80;33.00
16172;DHT22;8192;53.596;10.166;2023-05-07T06:10:37;20.80;33.20
16172;DHT22;8192;53.596;10.166;2023-05-07T06:13:04;20.70;33.30
16172;DHT22;8192;53.596;10.166;2023-05-07T06:15:32;20.70;33.20
16172;DHT22;8192;53.596;10.166;2023-05-07T06:17:58;20.70;33.30
16172;DHT22;8192;53.596;10.166;2023-05-07T06:20:25;20.70;33.30
16172;DHT22;8192;53.596;10.166;2023-05-07T06:22:52;20.70;33.30
16172;DHT22;8192;53.596;10.166;2023-05-07T06:25:19;20.70;33.40
16172;DHT22;8192;53.596;10.166;2023-05-07T06:27:45;20.70;33.30
16172;DHT22;8192;53.596;10.166;2023-05-07T06:30:12;20.70;33.30
16172;DHT22;8192;53.596;10.166;2023-05-07T06:32:41;20.70;33.20
16172;DHT22;8192;53.596;10.166;2023-05-07T06:35:08;20.70;33.10
16172;DHT22;8192;53.596;10.166;2023-05-07T06:37:34;20.80;33.10
16172;DHT22;8192;53.596;10.166;2023-05-07T06:40:04;20.70;32.90
16172;DHT22;8192;53.596;10.166;2023-05-07T06:42:31;20.80;33.00
16172;DHT22;8192;53.596;10.166;2023-05-07T06:44:58;20.70;32.90
16172;DHT22;8192;53.596;10.166;2023-05-07T06:47:25;20.80;32.80
16172;DHT22;8192;53.596;10.166;2023-05-07T06:49:53;20.80;32.70
16172;DHT22;8192;53.596;10.166;2023-05-07T06:52:19;20.80;32.60
16172;DHT22;8192;53.596;10.166;2023-05-07T06:54:46;20.80;32.60
16172;DHT22;8192;53.596;10.166;2023-05-07T06:57:13;20.80;32.60
16172;DHT22;8192;53.596;10.166;2023-05-07T06:59:40;20.80;32.50
16172;DHT22;8192;53.596;10.166;2023-05-07T07:02:06;20.80;32.50
16172;DHT22;8192;53.596;10.166;2023-05-07T07:04:33;20.80;32.40
16172;DHT22;8192;53.596;10.166;2023-05-07T07:07:03;20.80;32.30
16172;DHT22;8192;53.596;10.166;2023-05-07T07:09:29;20.80;32.20
16172;DHT22;8192;53.596;10.166;2023-05-07T07:11:56;20.80;32.00
16172;DHT22;8192;53.596;10.166;2023-05-07T07:14:22;20.80;32.00
16172;DHT22;8192;53.596;10.166;2023-05-07T07:16:49;20.80;32.00
16172;DHT22;8192;53.596;10.166;2023-05-07T07:19:16;20.80;31.90
16172;DHT22;8192;53.596;10.166;2023-05-07T07:21:43;20.80;31.80
16172;DHT22;8192;53.596;10.166;2023-05-07T07:24:12;20.70;31.80
16172;DHT22;8192;53.596;10.166;2023-05-07T07:26:44;20.80;31.80
16172;DHT22;8192;53.596;10.166;2023-05-07T07:29:11;20.80;31.70
16172;DHT22;8192;53.596;10.166;2023-05-07T07:31:37;20.70;31.60
16172;DHT22;8192;53.596;10.166;2023-05-07T07:34:04;20.80;31.50
16172;DHT22;8192;53.596;10.166;2023-05-07T07:36:30;20.70;31.50
16172;DHT22;8192;53.596;10.166;2023-05-07T07:38:57;20.70;31.40
16172;DHT22;8192;53.596;10.166;2023-05-07T07:41:26;20.80;31.40
16172;DHT22;8192;53.596;10.166;2023-05-07T07:43:53;20.70;31.30
16172;DHT22;8192;53.596;10.166;2023-05-07T07:46:20;20.80;31.40
16172;DHT22;8192;53.596;10.166;2023-05-07T07:48:46;20.70;31.20
16172;DHT22;8192;53.596;10.166;2023-05-07T07:51:13;20.70;31.30
16172;DHT22;8192;53.596;10.166;2023-05-07T07:53:40;20.70;31.20
16172;DHT22;8192;53.596;10.166;2023-05-07T07:56:06;20.70;31.20
16172;DHT22;8192;53.596;10.166;2023-05-07T07:58:34;20.70;31.20
16172;DHT22;8192;53.596;10.166;2023-05-07T08:01:03;20.70;31.00
16172;DHT22;8192;53.596;10.166;2023-05-07T08:03:30;20.70;31.00
16172;DHT22;8192;53.596;10.166;2023-05-07T08:05:58;20.80;31.10
16172;DHT22;8192;53.596;10.166;2023-05-07T08:08:24;20.70;31.00
16172;DHT22;8192;53.596;10.166;2023-05-07T08:10:51;20.70;31.00
16172;DHT22;8192;53.596;10.166;2023-05-07T08:13:18;20.70;31.00
16172;DHT22;8192;53.596;10.166;2023-05-07T08:15:46;20.70;30.90
16172;DHT22;8192;53.596;10.166;2023-05-07T08:18:13;20.70;30.90
16172;DHT22;8192;53.596;10.166;2023-05-07T08:20:40;20.70;30.90
16172;DHT22;8192;53.596;10.166;2023-05-07T08:23:08;20.80;30.90
16172;DHT22;8192;53.596;10.166;2023-05-07T08:25:34;20.70;30.80
16172;DHT22;8192;53.596;10.166;2023-05-07T08:28:01;20.80;30.80
16172;DHT22;8192;53.596;10.166;2023-05-07T08:30:28;20.80;30.80
16172;DHT22;8192;53.596;10.166;2023-05-07T08:32:56;20.80;30.70
16172;DHT22;8192;53.596;10.166;2023-05-07T08:35:23;20.80;30.70
16172;DHT22;8192;53.596;10.166;2023-05-07T08:37:50;20.80;30.80
16172;DHT22;8192;53.596;10.166;2023-05-07T08:40:17;20.80;30.80
16172;DHT22;8192;53.596;10.166;2023-05-07T08:42:44;20.80;31.00
16172;DHT22;8192;53.596;10.166;2023-05-07T08:45:11;20.70;30.90
16172;DHT22;8192;53.596;10.166;2023-05-07T08:47:42;20.70;30.90
16172;DHT22;8192;53.596;10.166;2023-05-07T08:50:11;20.80;30.90
16172;DHT22;8192;53.596;10.166;2023-05-07T08:52:38;20.80;31.00
16172;DHT22;8192;53.596;10.166;2023-05-07T08:55:06;20.80;31.10
16172;DHT22;8192;53.596;10.166;2023-05-07T08:57:32;20.40;28.70
16172;DHT22;8192;53.596;10.166;2023-05-07T08:59:59;20.10;28.20
16172;DHT22;8192;53.596;10.166;2023-05-07T09:02:26;19.80;27.80
16172;DHT22;8192;53.596;10.166;2023-05-07T09:04:52;19.80;28.40
16172;DHT22;8192;53.596;10.166;2023-05-07T09:07:20;19.90;28.60
16172;DHT22;8192;53.596;10.166;2023-05-07T09:09:49;19.80;27.60
16172;DHT22;8192;53.596;10.166;2023-05-07T09:12:17;19.80;27.80
16172;DHT22;8192;53.596;10.166;2023-05-07T09:14:44;19.70;27.70
16172;DHT22;8192;53.596;10.166;2023-05-07T09:17:11;19.50;27.60
16172;DHT22;8192;53.596;10.166;2023-05-07T09:19:37;19.40;27.30
16172;DHT22;8192;53.596;10.166;2023-05-07T09:22:05;19.40;27.80
16172;DHT22;8192;53.596;10.166;2023-05-07T09:24:34;19.50;27.60
16172;DHT22;8192;53.596;10.166;2023-05-07T09:27:03;19.60;28.00
16172;DHT22;8192;53.596;10.166;2023-05-07T09:29:30;19.50;27.30
16172;DHT22;8192;53.596;10.166;2023-05-07T09:32:00;19.40;27.60
16172;DHT22;8192;53.596;10.166;2023-05-07T09:34:29;19.40;28.50
16172;DHT22;8192;53.596;10.166;2023-05-07T09:36:55;19.60;28.00
16172;DHT22;8192;53.596;10.166;2023-05-07T09:39:23;19.80;28.60
16172;DHT22;8192;53.596;10.166;2023-05-07T09:41:51;20.00;28.70
16172;DHT22;8192;53.596;10.166;2023-05-07T09:44:20;20.10;28.70
16172;DHT22;8192;53.596;10.166;2023-05-07T09:46:47;20.10;28.60
16172;DHT22;8192;53.596;10.166;2023-05-07T09:49:18;20.20;28.70
16172;DHT22;8192;53.596;10.166;2023-05-07T09:51:47;20.30;28.70
16172;DHT22;8192;53.596;10.166;2023-05-07T09:54:14;20.40;28.40
16172;DHT22;8192;53.596;10.166;2023-05-07T09:56:42;20.50;28.30
16172;DHT22;8192;53.596;10.166;2023-05-07T09:59:11;20.60;28.30
16172;DHT22;8192;53.596;10.166;2023-05-07T10:01:38;20.60;28.30
16172;DHT22;8192;53.596;10.166;2023-05-07T10:04:08;20.60;28.40
16172;DHT22;8192;53.596;10.166;2023-05-07T10:06:35;20.70;28.40
16172;DHT22;8192;53.596;10.166;2023-05-07T10:09:03;20.70;28.50
16172;DHT22;8192;53.596;10.166;2023-05-07T10:11:31;20.70;28.50
16172;DHT22;8192;53.596;10.166;2023-05-07T10:13:58;20.70;28.50
16172;DHT22;8192;53.596;10.166;2023-05-07T10:16:28;20.70;28.50
16172;DHT22;8192;53.596;10.166;2023-05-07T10:18:57;20.70;28.60
16172;DHT22;8192;53.596;10.166;2023-05-07T10:21:24;20.70;28.60
16172;DHT22;8192;53.596;10.166;2023-05-07T10:23:55;20.70;28.60
16172;DHT22;8192;53.596;10.166;2023-05-07T10:26:24;20.70;28.60
16172;DHT22;8192;53.596;10.166;2023-05-07T10:28:53;20.80;28.70
16172;DHT22;8192;53.596;10.166;2023-05-07T10:31:25;20.80;28.70
16172;DHT22;8192;53.596;10.166;2023-05-07T10:33:57;20.80;28.80
16172;DHT22;8192;53.596;10.166;2023-05-07T10:36:25;20.80;28.70
16172;DHT22;8192;53.596;10.166;2023-05-07T10:38:53;20.80;28.70
16172;DHT22;8192;53.596;10.166;2023-05-07T10:41:20;20.80;28.70
16172;DHT22;8192;53.596;10.166;2023-05-07T10:43:47;20.80;28.70
16172;DHT22;8192;53.596;10.166;2023-05-07T10:46:20;20.80;28.80
16172;DHT22;8192;53.596;10.166;2023-05-07T10:51:34;20.80;28.80
16172;DHT22;8192;53.596;10.166;2023-05-07T10:56:46;20.80;29.10
16172;DHT22;8192;53.596;10.166;2023-05-07T10:59:32;20.80;29.00
16172;DHT22;8192;53.596;10.166;2023-05-07T11:02:00;20.80;29.00
16172;DHT22;8192;53.596;10.166;2023-05-07T11:04:29;20.80;29.50
16172;DHT22;8192;53.596;10.166;2023-05-07T11:07:21;20.80;29.00
16172;DHT22;8192;53.596;10.166;2023-05-07T11:09:56;20.80;29.00
16172;DHT22;8192;53.596;10.166;2023-05-07T11:15:09;20.80;28.90
16172;DHT22;8192;53.596;10.166;2023-05-07T11:17:51;20.90;28.90
16172;DHT22;8192;53.596;10.166;2023-05-07T11:20:18;20.90;29.00
16172;DHT22;8192;53.596;10.166;2023-05-07T11:22:47;20.80;29.10
16172;DHT22;8192;53.596;10.166;2023-05-07T11:25:17;20.80;29.20
16172;DHT22;8192;53.596;10.166;2023-05-07T11:27:44;20.70;29.20
16172;DHT22;8192;53.596;10.166;2023-05-07T11:30:11;20.70;29.30
16172;DHT22;8192;53.596;10.166;2023-05-07T11:32:42;20.70;29.40
16172;DHT22;8192;53.596;10.166;2023-05-07T11:35:09;20.70;29.40
16172;DHT22;8192;53.596;10.166;2023-05-07T11:37:36;20.70;29.50
16172;DHT22;8192;53.596;10.166;2023-05-07T11:40:08;20.70;29.50
16172;DHT22;8192;53.596;10.166;2023-05-07T11:42:36;20.70;29.50
16172;DHT22;8192;53.596;10.166;2023-05-07T11:45:04;20.70;29.50
16172;DHT22;8192;53.596;10.166;2023-05-07T11:47:31;20.70;29.60
16172;DHT22;8192;53.596;10.166;2023-05-07T11:50:02;20.70;29.60
16172;DHT22;8192;53.596;10.166;2023-05-07T11:52:30;20.70;29.60
16172;DHT22;8192;53.596;10.166;2023-05-07T11:54:58;20.70;29.60
16172;DHT22;8192;53.596;10.166;2023-05-07T11:57:26;20.70;29.70
16172;DHT22;8192;53.596;10.166;2023-05-07T11:59:54;20.80;29.70
16172;DHT22;8192;53.596;10.166;2023-05-07T12:02:21;20.80;29.70
16172;DHT22;8192;53.596;10.166;2023-05-07T12:04:50;20.80;29.70
16172;DHT22;8192;53.596;10.166;2023-05-07T12:07:17;20.80;29.70
16172;DHT22;8192;53.596;10.166;2023-05-07T12:09:44;20.80;29.70
16172;DHT22;8192;53.596;10.166;2023-05-07T12:12:11;20.80;29.80
16172;DHT22;8192;53.596;10.166;2023-05-07T12:14:41;20.80;29.80
16172;DHT22;8192;53.596;10.166;2023-05-07T12:17:08;20.80;29.80
16172;DHT22;8192;53.596;10.166;2023-05-07T12:19:37;20.80;29.90
16172;DHT22;8192;53.596;10.166;2023-05-07T12:22:04;20.80;29.90
16172;DHT22;8192;53.596;10.166;2023-05-07T12:24:41;20.80;29.90
16172;DHT22;8192;53.596;10.166;2023-05-07T12:27:08;20.80;29.90
16172;DHT22;8192;53.596;10.166;2023-05-07T12:29:35;20.90;29.80
16172;DHT22;8192;53.596;10.166;2023-05-07T12:32:06;21.00;29.60
16172;DHT22;8192;53.596;10.166;2023-05-07T12:34:33;21.00;29.60
16172;DHT22;8192;53.596;10.166;2023-05-07T12:37:01;21.00;29.60
16172;DHT22;8192;53.596;10.166;2023-05-07T12:39:28;21.00;29.50
16172;DHT22;8192;53.596;10.166;2023-05-07T12:41:55;21.00;29.60
16172;DHT22;8192;53.596;10.166;2023-05-07T12:44:25;21.00;29.60
16172;DHT22;8192;53.596;10.166;2023-05-07T12:46:52;21.00;29.70
16172;DHT22;8192;53.596;10.166;2023-05-07T12:49:20;21.00;29.70
16172;DHT22;8192;53.596;10.166;2023-05-07T12:51:47;21.00;30.20
16172;DHT22;8192;53.596;10.166;2023-05-07T12:54:14;21.00;29.80
16172;DHT22;8192;53.596;10.166;2023-05-07T12:56:59;21.00;29.80
16172;DHT22;8192;53.596;10.166;2023-05-07T12:59:30;21.00;29.80
16172;DHT22;8192;53.596;10.166;2023-05-07T13:01:57;21.00;30.20
16172;DHT22;8192;53.596;10.166;2023-05-07T13:04:25;21.00;29.70
16172;DHT22;8192;53.596;10.166;2023-05-07T13:06:52;21.00;29.80
16172;DHT22;8192;53.596;10.166;2023-05-07T13:09:18;21.00;29.90
16172;DHT22;8192;53.596;10.166;2023-05-07T13:11:45;21.00;29.80
16172;DHT22;8192;53.596;10.166;2023-05-07T13:14:12;21.00;29.90
16172;DHT22;8192;53.596;10.166;2023-05-07T13:16:38;21.00;29.90
16172;DHT22;8192;53.596;10.166;2023-05-07T13:21:15;21.20;32.20
16172;DHT22;8192;53.596;10.166;2023-05-07T13:23:42;21.30;29.50
16172;DHT22;8192;53.596;10.166;2023-05-07T13:26:09;21.30;29.40
16172;DHT22;8192;53.596;10.166;2023-05-07T13:28:36;21.50;36.20
16172;DHT22;8192;53.596;10.166;2023-05-07T13:31:03;21.60;29.00
16172;DHT22;8192;53.596;10.166;2023-05-07T13:33:30;21.60;29.10
16172;DHT22;8192;53.596;10.166;2023-05-07T13:35:57;21.50;29.10
16172;DHT22;8192;53.596;10.166;2023-05-07T13:38:27;21.50;29.10
16172;DHT22;8192;53.596;10.166;2023-05-07T13:40:54;21.50;29.20
16172;DHT22;8192;53.596;10.166;2023-05-07T13:43:21;21.50;29.40
16172;DHT22;8192;53.596;10.166;2023-05-07T13:45:47;21.50;29.50
16172;DHT22;8192;53.596;10.166;2023-05-07T13:48:14;21.50;29.60
16172;DHT22;8192;53.596;10.166;2023-05-07T13:50:41;21.50;29.60
16172;DHT22;8192;53.596;10.166;2023-05-07T13:53:08;21.50;29.60
16172;DHT22;8192;53.596;10.166;2023-05-07T13:55:36;21.50;29.50
16172;DHT22;8192;53.596;10.166;2023-05-07T13:58:03;21.50;29.50
16172;DHT22;8192;53.596;10.166;2023-05-07T14:00:30;21.60;29.60
16172;DHT22;8192;53.596;10.166;2023-05-07T14:02:57;21.50;29.50
16172;DHT22;8192;53.596;10.166;2023-05-07T14:05:24;21.60;29.60
16172;DHT22;8192;53.596;10.166;2023-05-07T14:07:52;21.60;29.50
16172;DHT22;8192;53.596;10.166;2023-05-07T14:10:19;21.60;29.50
16172;DHT22;8192;53.596;10.166;2023-05-07T14:12:47;21.60;29.50
16172;DHT22;8192;53.596;10.166;2023-05-07T14:15:14;21.60;29.40
16172;DHT22;8192;53.596;10.166;2023-05-07T14:17:41;21.70;29.90
16172;DHT22;8192;53.596;10.166;2023-05-07T14:20:09;21.70;29.40
16172;DHT22;8192;53.596;10.166;2023-05-07T14:22:36;21.70;29.30
16172;DHT22;8192;53.596;10.166;2023-05-07T14:25:03;21.70;29.30
16172;DHT22;8192;53.596;10.166;2023-05-07T14:27:30;21.70;29.20
16172;DHT22;8192;53.596;10.166;2023-05-07T14:29:59;21.70;29.20
16172;DHT22;8192;53.596;10.166;2023-05-07T14:32:26;21.80;29.10
16172;DHT22;8192;53.596;10.166;2023-05-07T14:34:52;21.70;29.60
16172;DHT22;8192;53.596;10.166;2023-05-07T14:37:19;21.80;29.20
16172;DHT22;8192;53.596;10.166;2023-05-07T14:39:47;21.70;29.10
16172;DHT22;8192;53.596;10.166;2023-05-07T14:42:13;21.70;29.10
16172;DHT22;8192;53.596;10.166;2023-05-07T14:44:40;21.70;29.10
16172;DHT22;8192;53.596;10.166;2023-05-07T14:47:09;21.70;29.10
16172;DHT22;8192;53.596;10.166;2023-05-07T14:49:36;21.70;29.10
16172;DHT22;8192;53.596;10.166;2023-05-07T14:52:03;21.70;29.10
16172;DHT22;8192;53.596;10.166;2023-05-07T14:54:33;21.70;29.10
16172;DHT22;8192;53.596;10.166;2023-05-07T14:57:00;21.70;29.10
16172;DHT22;8192;53.596;10.166;2023-05-07T14:59:27;21.70;29.00
16172;DHT22;8192;53.596;10.166;2023-05-07T15:01:54;21.70;29.10
16172;DHT22;8192;53.596;10.166;2023-05-07T15:04:23;21.70;29.10
16172;DHT22;8192;53.596;10.166;2023-05-07T15:06:50;21.70;29.10
16172;DHT22;8192;53.596;10.166;2023-05-07T15:09:19;21.80;29.10
16172;DHT22;8192;53.596;10.166;2023-05-07T15:11:46;21.80;29.10
16172;DHT22;8192;53.596;10.166;2023-05-07T15:14:13;21.80;29.10
16172;DHT22;8192;53.596;10.166;2023-05-07T15:16:40;21.80;29.00
16172;DHT22;8192;53.596;10.166;2023-05-07T15:19:06;21.80;29.20
16172;DHT22;8192;53.596;10.166;2023-05-07T15:21:35;21.80;29.10
16172;DHT22;8192;53.596;10.166;2023-05-07T15:24:02;21.70;29.10
16172;DHT22;8192;53.596;10.166;2023-05-07T15:26:29;21.70;29.10
16172;DHT22;8192;53.596;10.166;2023-05-07T15:28:56;21.70;29.20
16172;DHT22;8192;53.596;10.166;2023-05-07T15:31:23;21.60;29.20
16172;DHT22;8192;53.596;10.166;2023-05-07T15:33:50;21.60;29.20
16172;DHT22;8192;53.596;10.166;2023-05-07T15:36:17;21.60;29.20
16172;DHT22;8192;53.596;10.166;2023-05-07T15:38:45;21.70;29.10
16172;DHT22;8192;53.596;10.166;2023-05-07T15:41:12;21.70;29.10
16172;DHT22;8192;53.596;10.166;2023-05-07T15:43:44;21.70;29.10
16172;DHT22;8192;53.596;10.166;2023-05-07T15:46:17;21.70;29.20
16172;DHT22;8192;53.596;10.166;2023-05-07T15:48:43;21.70;29.20
16172;DHT22;8192;53.596;10.166;2023-05-07T15:51:10;21.60;29.20
16172;DHT22;8192;53.596;10.166;2023-05-07T15:53:38;21.60;29.30
16172;DHT22;8192;53.596;10.166;2023-05-07T15:56:06;21.60;29.40
16172;DHT22;8192;53.596;10.166;2023-05-07T15:58:33;21.60;29.50
16172;DHT22;8192;53.596;10.166;2023-05-07T16:01:00;21.60;29.60
16172;DHT22;8192;53.596;10.166;2023-05-07T16:03:28;21.60;29.70
16172;DHT22;8192;53.596;10.166;2023-05-07T16:05:55;21.60;30.30
16172;DHT22;8192;53.596;10.166;2023-05-07T16:08:25;21.60;31.20
16172;DHT22;8192;53.596;10.166;2023-05-07T16:10:52;21.60;30.50
16172;DHT22;8192;53.596;10.166;2023-05-07T16:13:20;21.60;30.50
16172;DHT22;8192;53.596;10.166;2023-05-07T16:15:49;21.60;30.50
16172;DHT22;8192;53.596;10.166;2023-05-07T16:18:16;21.60;30.60
16172;DHT22;8192;53.596;10.166;2023-05-07T16:20:44;21.60;30.60
16172;DHT22;8192;53.596;10.166;2023-05-07T16:23:11;21.60;30.70
16172;DHT22;8192;53.596;10.166;2023-05-07T16:25:38;21.60;31.40
16172;DHT22;8192;53.596;10.166;2023-05-07T16:28:05;21.50;30.80
16172;DHT22;8192;53.596;10.166;2023-05-07T16:30:33;21.50;30.90
16172;DHT22;8192;53.596;10.166;2023-05-07T16:33:00;21.50;30.90
16172;DHT22;8192;53.596;10.166;2023-05-07T16:35:27;21.50;30.90
16172;DHT22;8192;53.596;10.166;2023-05-07T16:37:55;21.50;30.90
16172;DHT22;8192;53.596;10.166;2023-05-07T16:40:22;21.50;31.00
16172;DHT22;8192;53.596;10.166;2023-05-07T16:42:50;21.50;31.10
16172;DHT22;8192;53.596;10.166;2023-05-07T16:45:17;21.50;31.10
16172;DHT22;8192;53.596;10.166;2023-05-07T16:47:45;21.40;31.10
16172;DHT22;8192;53.596;10.166;2023-05-07T16:50:12;21.50;31.40
16172;DHT22;8192;53.596;10.166;2023-05-07T16:52:39;21.50;31.60
16172;DHT22;8192;53.596;10.166;2023-05-07T16:55:06;21.50;31.60
16172;DHT22;8192;53.596;10.166;2023-05-07T16:57:33;21.50;31.70
16172;DHT22;8192;53.596;10.166;2023-05-07T17:00:00;21.50;31.90
16172;DHT22;8192;53.596;10.166;2023-05-07T17:02:31;21.50;32.10
16172;DHT22;8192;53.596;10.166;2023-05-07T17:05:00;21.50;32.40
16172;DHT22;8192;53.596;10.166;2023-05-07T17:07:27;21.50;32.60
16172;DHT22;8192;53.596;10.166;2023-05-07T17:09:54;21.50;32.70
16172;DHT22;8192;53.596;10.166;2023-05-07T17:12:21;21.50;33.10
16172;DHT22;8192;53.596;10.166;2023-05-07T17:14:48;21.50;32.60
16172;DHT22;8192;53.596;10.166;2023-05-07T17:17:15;21.50;32.70
16172;DHT22;8192;53.596;10.166;2023-05-07T17:19:41;21.50;33.00
16172;DHT22;8192;53.596;10.166;2023-05-07T17:22:10;21.50;33.70
16172;DHT22;8192;53.596;10.166;2023-05-07T17:24:37;21.50;33.90
16172;DHT22;8192;53.596;10.166;2023-05-07T17:27:04;21.50;34.00
16172;DHT22;8192;53.596;10.166;2023-05-07T17:29:31;21.50;34.00
16172;DHT22;8192;53.596;10.166;2023-05-07T17:31:58;21.50;33.90
16172;DHT22;8192;53.596;10.166;2023-05-07T17:34:25;21.50;34.50
16172;DHT22;8192;53.596;10.166;2023-05-07T17:36:51;21.50;33.80
16172;DHT22;8192;53.596;10.166;2023-05-07T17:39:20;21.50;33.70
16172;DHT22;8192;53.596;10.166;2023-05-07T17:41:47;21.40;33.50
16172;DHT22;8192;53.596;10.166;2023-05-07T17:44:14;21.50;33.50
16172;DHT22;8192;53.596;10.166;2023-05-07T17:46:40;21.50;33.50
16172;DHT22;8192;53.596;10.166;2023-05-07T17:49:07;21.50;33.40
16172;DHT22;8192;53.596;10.166;2023-05-07T17:51:34;21.50;33.50
16172;DHT22;8192;53.596;10.166;2023-05-07T17:54:01;21.50;33.30
16172;DHT22;8192;53.596;10.166;2023-05-07T17:56:29;21.50;33.40
16172;DHT22;8192;53.596;10.166;2023-05-07T17:58:56;21.50;33.30
16172;DHT22;8192;53.596;10.166;2023-05-07T18:01:23;21.40;33.40
16172;DHT22;8192;53.596;10.166;2023-05-07T18:03:50;21.50;33.40
16172;DHT22;8192;53.596;10.166;2023-05-07T18:06:17;21.50;33.30
16172;DHT22;8192;53.596;10.166;2023-05-07T18:08:45;21.50;33.30
16172;DHT22;8192;53.596;10.166;2023-05-07T18:11:12;21.50;33.30
16172;DHT22;8192;53.596;10.166;2023-05-07T18:13:40;21.50;33.30
16172;DHT22;8192;53.596;10.166;2023-05-07T18:16:08;21.50;33.30
16172;DHT22;8192;53.596;10.166;2023-05-07T18:18:35;21.50;33.10
16172;DHT22;8192;53.596;10.166;2023-05-07T18:21:02;21.50;33.10
16172;DHT22;8192;53.596;10.166;2023-05-07T18:23:29;21.50;33.00
16172;DHT22;8192;53.596;10.166;2023-05-07T18:25:57;21.50;33.00
16172;DHT22;8192;53.596;10.166;2023-05-07T18:28:24;21.50;33.00
16172;DHT22;8192;53.596;10.166;2023-05-07T18:30:52;21.50;33.00
16172;DHT22;8192;53.596;10.166;2023-05-07T18:33:19;21.40;32.90
16172;DHT22;8192;53.596;10.166;2023-05-07T18:35:46;21.50;33.00
16172;DHT22;8192;53.596;10.166;2023-05-07T18:38:13;21.50;33.00
16172;DHT22;8192;53.596;10.166;2023-05-07T18:40:40;21.40;32.90
16172;DHT22;8192;53.596;10.166;2023-05-07T18:43:08;21.40;33.00
16172;DHT22;8192;53.596;10.166;2023-05-07T18:45:35;21.40;33.00
16172;DHT22;8192;53.596;10.166;2023-05-07T18:48:04;21.40;33.00
16172;DHT22;8192;53.596;10.166;2023-05-07T18:50:32;21.40;33.00
16172;DHT22;8192;53.596;10.166;2023-05-07T18:52:58;21.40;32.90
16172;DHT22;8192;53.596;10.166;2023-05-07T18:55:26;21.40;32.90
16172;DHT22;8192;53.596;10.166;2023-05-07T18:57:53;21.40;32.80
16172;DHT22;8192;53.596;10.166;2023-05-07T19:00:20;21.40;32.90
16172;DHT22;8192;53.596;10.166;2023-05-07T19:02:46;21.40;32.90
16172;DHT22;8192;53.596;10.166;2023-05-07T19:05:15;21.40;32.90
16172;DHT22;8192;53.596;10.166;2023-05-07T19:07:43;21.40;32.80
16172;DHT22;8192;53.596;10.166;2023-05-07T19:10:10;21.40;32.80
16172;DHT22;8192;53.596;10.166;2023-05-07T19:12:37;21.40;32.80
16172;DHT22;8192;53.596;10.166;2023-05-07T19:15:04;21.40;32.70
16172;DHT22;8192;53.596;10.166;2023-05-07T19:17:31;21.40;32.70
16172;DHT22;8192;53.596;10.166;2023-05-07T19:19:58;21.40;33.30
16172;DHT22;8192;53.596;10.166;2023-05-07T19:22:26;21.40;32.70
16172;DHT22;8192;53.596;10.166;2023-05-07T19:24:53;21.40;32.70
16172;DHT22;8192;53.596;10.166;2023-05-07T19:27:19;21.40;32.70
16172;DHT22;8192;53.596;10.166;2023-05-07T19:29:46;21.40;32.70
16172;DHT22;8192;53.596;10.166;2023-05-07T19:32:13;21.40;32.70
16172;DHT22;8192;53.596;10.166;2023-05-07T19:34:40;21.40;32.70
16172;DHT22;8192;53.596;10.166;2023-05-07T19:37:07;21.30;32.60
16172;DHT22;8192;53.596;10.166;2023-05-07T19:39:35;21.30;32.60
16172;DHT22;8192;53.596;10.166;2023-05-07T19:42:02;21.30;32.60
16172;DHT22;8192;53.596;10.166;2023-05-07T19:44:29;21.30;32.60
16172;DHT22;8192;53.596;10.166;2023-05-07T19:46:57;21.30;32.60
16172;DHT22;8192;53.596;10.166;2023-05-07T19:49:26;21.30;32.50
16172;DHT22;8192;53.596;10.166;2023-05-07T19:51:53;21.30;32.50
16172;DHT22;8192;53.596;10.166;2023-05-07T19:54:21;21.30;32.50
16172;DHT22;8192;53.596;10.166;2023-05-07T19:56:50;21.30;32.50
16172;DHT22;8192;53.596;10.166;2023-05-07T19:59:16;21.30;32.50
16172;DHT22;8192;53.596;10.166;2023-05-07T20:01:43;21.30;32.50
16172;DHT22;8192;53.596;10.166;2023-05-07T20:04:10;21.30;32.50
16172;DHT22;8192;53.596;10.166;2023-05-07T20:06:37;21.30;32.50
16172;DHT22;8192;53.596;10.166;2023-05-07T20:09:04;21.30;32.50
16172;DHT22;8192;53.596;10.166;2023-05-07T20:11:31;21.30;32.40
16172;DHT22;8192;53.596;10.166;2023-05-07T20:14:00;21.30;32.50
16172;DHT22;8192;53.596;10.166;2023-05-07T20:16:29;21.30;32.60
16172;DHT22;8192;53.596;10.166;2023-05-07T20:18:55;21.40;32.80
16172;DHT22;8192;53.596;10.166;2023-05-07T20:21:22;21.40;33.40
16172;DHT22;8192;53.596;10.166;2023-05-07T20:23:49;21.40;32.90
16172;DHT22;8192;53.596;10.166;2023-05-07T20:26:16;21.40;33.00
16172;DHT22;8192;53.596;10.166;2023-05-07T20:28:43;21.40;33.00
16172;DHT22;8192;53.596;10.166;2023-05-07T20:31:11;21.40;33.70
16172;DHT22;8192;53.596;10.166;2023-05-07T20:33:38;21.50;34.00
16172;DHT22;8192;53.596;10.166;2023-05-07T20:36:06;21.50;34.20
16172;DHT22;8192;53.596;10.166;2023-05-07T20:38:33;21.50;34.00
16172;DHT22;8192;53.596;10.166;2023-05-07T20:41:05;21.50;33.90
16172;DHT22;8192;53.596;10.166;2023-05-07T20:43:32;21.50;33.80
16172;DHT22;8192;53.596;10.166;2023-05-07T20:45:59;21.50;33.70
16172;DHT22;8192;53.596;10.166;2023-05-07T20:48:27;21.50;33.70
16172;DHT22;8192;53.596;10.166;2023-05-07T20:50:55;21.50;33.60
16172;DHT22;8192;53.596;10.166;2023-05-07T20:53:23;21.50;33.60
16172;DHT22;8192;53.596;10.166;2023-05-07T20:55:51;21.50;33.50
16172;DHT22;8192;53.596;10.166;2023-05-07T20:58:17;21.50;33.50
16172;DHT22;8192;53.596;10.166;2023-05-07T21:00:44;21.50;33.40
16172;DHT22;8192;53.596;10.166;2023-05-07T21:03:11;21.50;33.30
16172;DHT22;8192;53.596;10.166;2023-05-07T21:05:39;21.50;33.30
16172;DHT22;8192;53.596;10.166;2023-05-07T21:08:06;21.50;33.20
16172;DHT22;8192;53.596;10.166;2023-05-07T21:10:33;21.50;33.20
16172;DHT22;8192;53.596;10.166;2023-05-07T21:13:00;21.50;33.10
16172;DHT22;8192;53.596;10.166;2023-05-07T21:15:27;21.50;33.10
16172;DHT22;8192;53.596;10.166;2023-05-07T21:17:53;21.50;33.10
16172;DHT22;8192;53.596;10.166;2023-05-07T21:20:20;21.50;33.00
16172;DHT22;8192;53.596;10.166;2023-05-07T21:22:48;21.50;33.00
16172;DHT22;8192;53.596;10.166;2023-05-07T21:25:16;21.50;32.90
16172;DHT22;8192;53.596;10.166;2023-05-07T21:27:42;21.50;32.90
16172;DHT22;8192;53.596;10.166;2023-05-07T21:30:10;21.50;32.90
16172;DHT22;8192;53.596;10.166;2023-05-07T21:32:38;21.50;32.80
16172;DHT22;8192;53.596;10.166;2023-05-07T21:35:06;21.50;32.80
16172;DHT22;8192;53.596;10.166;2023-05-07T21:37:33;21.50;32.80
16172;DHT22;8192;53.596;10.166;2023-05-07T21:40:01;21.50;32.80